createdAt,value
2017-10-02T00:01:47.339Z,10.40
2017-10-02T00:04:17.811Z,11.70
2017-10-02T00:06:49.647Z,11.30
2017-10-02T00:09:20.213Z,12.93
2017-10-02T00:11:51.132Z,8.57
2017-10-02T00:14:21.508Z,8.75
2017-10-02T00:16:53.075Z,11.20
2017-10-02T00:19:24.347Z,12.15
2017-10-02T00:21:54.964Z,12.13
2017-10-02T00:24:25.784Z,9.82
2017-10-02T00:26:57.307Z,8.75
2017-10-02T00:29:27.588Z,13.30
2017-10-02T00:31:58.198Z,12.20
2017-10-02T00:34:29.073Z,10.73
2017-10-02T00:37:00.973Z,7.70
2017-10-02T00:39:32.546Z,8.68
2017-10-02T00:42:03.306Z,9.27
2017-10-02T00:44:33.795Z,8.35
2017-10-02T00:47:05.191Z,16.45
2017-10-02T00:49:35.316Z,13.23
2017-10-02T00:52:05.945Z,9.50
2017-10-02T00:54:36.512Z,5.43
2017-10-02T00:57:08.272Z,12.45
2017-10-02T00:59:39.645Z,6.40
2017-10-02T01:02:10.715Z,8.02
2017-10-02T01:04:40.960Z,7.75
2017-10-02T01:07:12.285Z,7.68
2017-10-02T01:09:42.891Z,6.43
2017-10-02T01:12:13.746Z,7.87
2017-10-02T01:14:44.765Z,5.78
2017-10-02T01:17:16.522Z,5.47
2017-10-02T01:19:48.091Z,7.53
2017-10-02T01:22:18.943Z,14.00
2017-10-02T01:24:50.212Z,9.73
2017-10-02T01:27:20.866Z,12.88
2017-10-02T01:29:52.505Z,10.23
2017-10-02T01:32:23.301Z,13.65
2017-10-02T01:34:54.841Z,7.53
2017-10-02T01:37:25.660Z,8.27
2017-10-02T01:39:56.173Z,10.77
2017-10-02T01:42:27.397Z,7.05
2017-10-02T01:44:58.204Z,9.73
2017-10-02T01:47:28.938Z,13.38
2017-10-02T01:49:59.480Z,9.05
2017-10-02T01:52:30.257Z,11.35
2017-10-02T01:55:01.854Z,10.63
2017-10-02T01:57:32.883Z,9.15
2017-10-02T02:00:03.889Z,6.28
2017-10-02T02:02:35.294Z,11.45
2017-10-02T02:05:05.966Z,13.10
2017-10-02T02:07:38.059Z,17.27
2017-10-02T02:10:08.877Z,10.10
2017-10-02T02:12:40.599Z,10.60
2017-10-02T02:15:11.047Z,6.60
2017-10-02T02:17:42.503Z,10.70
2017-10-02T02:20:13.830Z,8.73
2017-10-02T02:22:44.505Z,11.82
2017-10-02T02:25:16.071Z,11.23
2017-10-02T02:27:47.087Z,7.93
2017-10-02T02:30:18.357Z,9.98
2017-10-02T02:32:49.664Z,7.70
2017-10-02T02:35:22.044Z,6.78
2017-10-02T02:37:53.580Z,10.40
2017-10-02T02:40:25.643Z,8.98
2017-10-02T02:42:57.771Z,8.07
2017-10-02T02:45:28.945Z,6.70
2017-10-02T02:48:01.685Z,3.78
2017-10-02T02:50:32.723Z,7.43
2017-10-02T02:53:03.622Z,7.20
2017-10-02T02:55:34.398Z,9.48
2017-10-02T02:58:05.790Z,7.00
2017-10-02T03:00:37.120Z,4.03
2017-10-02T03:03:08.523Z,4.45
2017-10-02T03:05:38.970Z,7.12
2017-10-02T03:08:10.334Z,7.90
2017-10-02T03:10:41.238Z,4.10
2017-10-02T03:13:13.516Z,5.72
2017-10-02T03:15:44.093Z,11.40
2017-10-02T03:18:15.297Z,6.37
2017-10-02T03:20:45.677Z,5.85
2017-10-02T03:23:17.201Z,4.57
2017-10-02T03:25:47.479Z,4.35
2017-10-02T03:28:19.154Z,3.85
2017-10-02T03:30:50.134Z,9.65
2017-10-02T03:33:21.179Z,4.10
2017-10-02T03:35:52.124Z,5.12
2017-10-02T03:38:24.104Z,3.67
2017-10-02T03:40:55.138Z,7.47
2017-10-02T03:43:25.960Z,7.05
2017-10-02T03:45:57.355Z,6.15
2017-10-02T03:48:28.732Z,3.50
2017-10-02T03:50:59.717Z,4.47
2017-10-02T03:53:32.632Z,9.95
2017-10-02T03:56:03.650Z,10.15
2017-10-02T03:58:34.724Z,8.52
2017-10-02T04:01:05.595Z,6.72
2017-10-02T04:03:36.911Z,9.00
2017-10-02T04:06:08.109Z,10.73
2017-10-02T04:08:40.154Z,3.30
2017-10-02T04:11:11.349Z,4.20
2017-10-02T04:13:42.561Z,6.50
2017-10-02T04:16:13.727Z,3.03
2017-10-02T04:18:44.993Z,4.62
2017-10-02T04:21:16.100Z,4.18
2017-10-02T04:23:48.203Z,6.45
2017-10-02T04:26:19.280Z,6.82
2017-10-02T04:28:51.064Z,5.05
2017-10-02T04:31:22.439Z,7.00
2017-10-02T04:33:53.406Z,5.30
2017-10-02T04:36:24.426Z,4.35
2017-10-02T04:38:55.225Z,5.90
2017-10-02T04:41:25.690Z,4.68
2017-10-02T04:43:56.837Z,4.53
2017-10-02T04:46:27.823Z,2.87
2017-10-02T04:48:59.713Z,5.00
2017-10-02T04:51:30.829Z,3.35
2017-10-02T04:54:01.809Z,4.10
2017-10-02T04:56:32.841Z,3.42
2017-10-02T04:59:04.393Z,4.53
2017-10-02T05:01:35.279Z,4.45
2017-10-02T05:04:06.171Z,3.42
2017-10-02T05:06:37.028Z,3.53
2017-10-02T05:09:07.642Z,3.17
2017-10-02T05:11:38.818Z,4.45
2017-10-02T05:14:11.042Z,2.87
2017-10-02T05:16:42.108Z,3.22
2017-10-02T05:19:13.496Z,2.95
2017-10-02T05:21:45.702Z,3.55
2017-10-02T05:24:16.752Z,3.28
2017-10-02T05:26:47.554Z,3.22
2017-10-02T05:31:57.326Z,3.65
2017-10-02T05:34:29.250Z,3.42
2017-10-02T05:37:01.057Z,3.90
2017-10-02T05:39:32.359Z,3.15
2017-10-02T05:42:03.366Z,2.50
2017-10-02T05:44:34.788Z,2.97
2017-10-02T05:47:06.150Z,2.60
2017-10-02T05:49:37.218Z,3.17
2017-10-02T05:52:09.028Z,2.42
2017-10-02T05:54:41.115Z,2.47
2017-10-02T05:57:11.857Z,2.58
2017-10-02T05:59:43.222Z,2.30
2017-10-02T06:02:13.890Z,2.30
2017-10-02T06:04:45.940Z,2.53
2017-10-02T06:07:17.191Z,2.42
2017-10-02T06:09:49.210Z,2.25
2017-10-02T06:12:20.919Z,1.92
2017-10-02T06:14:52.932Z,2.10
2017-10-02T06:17:26.509Z,2.10
2017-10-02T06:19:57.947Z,2.65
2017-10-02T06:22:28.555Z,2.45
2017-10-02T06:24:59.627Z,2.25
2017-10-02T06:27:30.630Z,2.42
2017-10-02T06:30:02.285Z,2.83
2017-10-02T06:32:33.493Z,2.62
2017-10-02T06:35:04.333Z,2.55
2017-10-02T06:37:35.533Z,2.30
2017-10-02T06:40:06.829Z,2.22
2017-10-02T06:42:38.694Z,5.47
2017-10-02T06:45:09.327Z,2.70
2017-10-02T06:47:40.322Z,2.40
2017-10-02T06:50:11.676Z,3.67
2017-10-02T06:52:43.194Z,3.15
2017-10-02T06:55:14.879Z,2.78
2017-10-02T06:57:46.659Z,2.78
2017-10-02T07:00:18.578Z,2.67
2017-10-02T07:02:50.343Z,8.30
2017-10-02T07:05:22.596Z,2.03
2017-10-02T07:07:53.417Z,3.25
2017-10-02T07:10:25.140Z,2.60
2017-10-02T07:12:56.765Z,3.00
2017-10-02T07:15:28.291Z,3.58
2017-10-02T07:18:00.314Z,5.87
2017-10-02T07:20:31.324Z,2.80
2017-10-02T07:23:03.061Z,4.30
2017-10-02T07:25:34.524Z,4.60
2017-10-02T07:28:06.726Z,4.45
2017-10-02T07:30:38.115Z,3.53
2017-10-02T07:33:09.458Z,3.45
2017-10-02T07:35:40.808Z,4.18
2017-10-02T07:38:12.419Z,3.85
2017-10-02T07:40:44.069Z,4.30
2017-10-02T07:43:15.416Z,4.57
2017-10-02T07:45:47.536Z,6.43
2017-10-02T07:48:18.929Z,5.05
2017-10-02T07:50:51.130Z,5.57
2017-10-02T07:53:22.279Z,4.28
2017-10-02T07:55:53.815Z,5.10
2017-10-02T07:58:25.572Z,5.40
2017-10-02T08:00:56.937Z,6.10
2017-10-02T08:03:28.807Z,6.85
2017-10-02T08:06:00.054Z,6.20
2017-10-02T08:08:31.497Z,5.40
2017-10-02T08:11:03.714Z,5.87
2017-10-02T08:13:35.954Z,5.97
2017-10-02T08:16:07.351Z,6.53
2017-10-02T08:18:39.208Z,6.68
2017-10-02T08:21:11.508Z,5.57
2017-10-02T08:23:42.998Z,8.05
2017-10-02T08:26:14.161Z,5.50
2017-10-02T08:28:45.321Z,6.25
2017-10-02T08:31:16.524Z,7.60
2017-10-02T08:33:48.021Z,6.75
2017-10-02T08:36:19.021Z,8.90
2017-10-02T08:38:50.385Z,5.40
2017-10-02T08:41:21.977Z,7.65
2017-10-02T08:43:53.778Z,16.73
2017-10-02T08:46:26.788Z,9.52
2017-10-02T08:48:58.242Z,13.32
2017-10-02T08:51:29.091Z,8.68
2017-10-02T08:54:00.321Z,10.43
2017-10-02T08:56:31.181Z,6.12
2017-10-02T08:59:02.947Z,10.57
2017-10-02T09:01:35.728Z,6.75
2017-10-02T09:04:06.851Z,6.57
2017-10-02T09:06:38.311Z,6.78
2017-10-02T09:09:08.934Z,6.07
2017-10-02T09:11:40.201Z,8.68
2017-10-02T09:14:12.127Z,8.18
2017-10-02T09:16:43.854Z,7.57
2017-10-02T09:19:15.480Z,7.75
2017-10-02T09:21:46.891Z,6.68
2017-10-02T09:24:18.321Z,9.13
2017-10-02T09:26:49.761Z,7.97
2017-10-02T09:29:20.596Z,10.65
2017-10-02T09:31:53.552Z,14.98
2017-10-02T09:34:24.320Z,11.23
2017-10-02T09:36:55.263Z,11.52
2017-10-02T09:39:26.478Z,13.77
2017-10-02T09:41:58.437Z,13.90
2017-10-02T09:44:30.179Z,15.15
2017-10-02T09:47:01.433Z,18.33
2017-10-02T09:49:33.532Z,9.00
2017-10-02T09:52:05.959Z,20.67
2017-10-02T09:54:37.458Z,14.97
2017-10-02T09:57:09.029Z,33.30
2017-10-02T09:59:39.754Z,22.90
2017-10-02T10:02:11.194Z,19.53
2017-10-02T10:04:43.261Z,32.80
2017-10-02T10:07:14.880Z,31.50
2017-10-02T10:09:46.906Z,25.70
2017-10-02T10:12:18.334Z,29.57
2017-10-02T10:14:49.814Z,33.13
2017-10-02T10:17:21.413Z,32.63
2017-10-02T10:19:54.310Z,32.80
2017-10-02T10:22:26.074Z,35.30
2017-10-02T10:24:58.170Z,26.23
2017-10-02T10:27:30.498Z,31.33
2017-10-02T10:30:02.542Z,25.97
2017-10-02T10:32:34.452Z,31.23
2017-10-02T10:35:05.832Z,32.57
2017-10-02T10:37:37.408Z,31.47
2017-10-02T10:40:10.248Z,19.20
2017-10-02T10:42:41.445Z,25.93
2017-10-02T10:45:12.820Z,23.83
2017-10-02T10:47:44.072Z,32.20
2017-10-02T10:50:15.516Z,37.10
2017-10-02T10:52:47.323Z,24.60
2017-10-02T10:55:18.489Z,32.43
2017-10-02T10:57:50.245Z,26.73
2017-10-02T11:00:21.436Z,20.00
2017-10-02T11:02:52.339Z,28.60
2017-10-02T11:05:24.634Z,30.83
2017-10-02T11:07:55.565Z,30.60
2017-10-02T11:10:27.112Z,26.53
2017-10-02T11:12:58.916Z,26.23
2017-10-02T11:15:29.861Z,24.50
2017-10-02T11:18:01.367Z,29.97
2017-10-02T11:20:33.274Z,24.80
2017-10-02T11:23:04.369Z,37.13
2017-10-02T11:25:36.830Z,32.00
2017-10-02T11:28:08.763Z,25.83
2017-10-02T11:30:39.930Z,27.40
2017-10-02T11:33:11.854Z,29.30
2017-10-02T11:35:42.778Z,38.20
2017-10-02T11:38:14.207Z,34.40
2017-10-02T11:40:45.309Z,31.33
2017-10-02T11:43:16.996Z,34.83
2017-10-02T11:45:48.131Z,50.60
2017-10-02T11:48:19.390Z,31.73
2017-10-02T11:50:51.475Z,31.90
2017-10-02T11:53:22.550Z,33.70
2017-10-02T11:55:53.768Z,33.23
2017-10-02T11:58:25.316Z,35.03
2017-10-02T12:00:57.281Z,29.87
2017-10-02T12:03:29.598Z,26.53
2017-10-02T12:06:01.179Z,24.67
2017-10-02T12:08:32.832Z,30.37
2017-10-02T12:11:05.199Z,34.33
2017-10-02T12:13:36.583Z,27.70
2017-10-02T12:16:08.144Z,31.80
2017-10-02T12:18:39.828Z,26.87
2017-10-02T12:21:11.427Z,26.20
2017-10-02T12:23:42.697Z,38.50
2017-10-02T12:26:14.770Z,28.30
2017-10-02T12:28:45.885Z,27.47
2017-10-02T12:31:17.677Z,25.67
2017-10-02T12:33:49.485Z,31.40
2017-10-02T12:36:20.934Z,28.67
2017-10-02T12:38:53.206Z,34.27
2017-10-02T12:41:24.096Z,34.93
2017-10-02T12:43:56.565Z,26.27
2017-10-02T12:46:28.010Z,28.47
2017-10-02T12:48:59.578Z,22.93
2017-10-02T12:51:30.176Z,23.90
2017-10-02T12:54:01.779Z,20.30
2017-10-02T12:56:33.145Z,29.23
2017-10-02T12:59:04.532Z,27.90
2017-10-02T13:01:35.620Z,32.80
2017-10-02T13:04:06.852Z,27.87
2017-10-02T13:06:37.501Z,27.37
2017-10-02T13:09:09.924Z,33.90
2017-10-02T13:11:40.638Z,29.97
2017-10-02T13:14:12.075Z,25.37
2017-10-02T13:16:43.577Z,20.73
2017-10-02T13:19:15.196Z,24.40
2017-10-02T13:21:46.682Z,30.17
2017-10-02T13:24:17.512Z,30.47
2017-10-02T13:26:48.922Z,33.47
2017-10-02T13:29:20.052Z,24.57
2017-10-02T13:31:52.197Z,25.03
2017-10-02T13:34:23.186Z,35.87
2017-10-02T13:36:53.972Z,24.13
2017-10-02T13:39:26.272Z,33.40
2017-10-02T13:41:57.851Z,29.80
2017-10-02T13:44:29.661Z,33.37
2017-10-02T13:47:03.675Z,24.50
2017-10-02T13:49:34.868Z,27.90
2017-10-02T13:52:05.526Z,23.03
2017-10-02T13:54:36.783Z,45.80
2017-10-02T13:57:07.782Z,20.77
2017-10-02T13:59:38.887Z,26.13
2017-10-02T14:02:10.750Z,29.93
2017-10-02T14:04:42.099Z,25.20
2017-10-02T14:07:13.719Z,33.50
2017-10-02T14:09:45.748Z,24.57
2017-10-02T14:12:18.507Z,29.67
2017-10-02T14:14:49.558Z,38.67
2017-10-02T14:17:20.314Z,35.93
2017-10-02T14:19:51.256Z,31.30
2017-10-02T14:22:22.359Z,27.63
2017-10-02T14:24:53.889Z,34.37
2017-10-02T14:27:25.850Z,26.97
2017-10-02T14:29:57.386Z,27.00
2017-10-02T14:32:28.510Z,27.60
2017-10-02T14:35:00.005Z,34.80
2017-10-02T14:37:31.473Z,24.57
2017-10-02T14:40:02.896Z,38.73
2017-10-02T14:42:33.844Z,28.07
2017-10-02T14:45:05.844Z,40.50
2017-10-02T14:47:38.104Z,34.17
2017-10-02T14:50:09.120Z,33.43
2017-10-02T14:52:40.170Z,28.97
2017-10-02T14:55:11.961Z,32.43
2017-10-02T14:57:42.992Z,39.50
2017-10-02T15:00:14.745Z,27.83
2017-10-02T15:02:46.582Z,27.03
2017-10-02T15:05:18.400Z,34.23
2017-10-02T15:07:49.529Z,39.57
2017-10-02T15:10:21.251Z,35.10
2017-10-02T15:12:52.680Z,39.87
2017-10-02T15:15:24.313Z,34.80
2017-10-02T15:17:55.941Z,33.97
2017-10-02T15:20:27.111Z,33.60
2017-10-02T15:22:58.387Z,31.60
2017-10-02T15:25:30.200Z,37.03
2017-10-02T15:28:01.688Z,30.03
2017-10-02T15:30:33.031Z,33.03
2017-10-02T15:33:05.037Z,30.00
2017-10-02T15:35:36.146Z,35.23
2017-10-02T15:38:07.389Z,41.37
2017-10-02T15:40:39.371Z,33.40
2017-10-02T15:43:11.023Z,37.07
2017-10-02T15:45:42.826Z,40.40
2017-10-02T15:48:14.215Z,31.30
2017-10-02T15:50:45.912Z,34.00
2017-10-02T15:53:16.675Z,36.27
2017-10-02T15:55:49.117Z,23.07
2017-10-02T15:58:20.277Z,30.20
2017-10-02T16:00:51.628Z,29.53
2017-10-02T16:03:22.741Z,28.77
2017-10-02T16:05:54.186Z,38.07
2017-10-02T16:08:25.587Z,33.53
2017-10-02T16:10:56.806Z,34.73
2017-10-02T16:13:28.356Z,32.20
2017-10-02T16:15:59.272Z,29.13
2017-10-02T16:18:30.539Z,33.13
2017-10-02T16:21:01.819Z,33.83
2017-10-02T16:23:34.361Z,37.80
2017-10-02T16:26:05.451Z,33.03
2017-10-02T16:28:37.270Z,23.50
2017-10-02T16:31:09.188Z,34.73
2017-10-02T16:33:41.265Z,39.70
2017-10-02T16:36:12.155Z,48.30
2017-10-02T16:38:42.785Z,33.03
2017-10-02T16:41:13.922Z,45.60
2017-10-02T16:43:45.075Z,37.87
2017-10-02T16:46:16.870Z,38.07
2017-10-02T16:48:47.596Z,25.43
2017-10-02T16:51:19.108Z,35.53
2017-10-02T16:53:49.993Z,28.23
2017-10-02T16:56:21.450Z,43.70
2017-10-02T16:58:52.484Z,25.87
2017-10-02T17:01:25.126Z,29.10
2017-10-02T17:03:56.820Z,18.93
2017-10-02T17:06:28.303Z,21.37
2017-10-02T17:08:59.845Z,32.67
2017-10-02T17:11:31.312Z,32.17
2017-10-02T17:14:02.578Z,28.53
2017-10-02T17:16:33.731Z,29.57
2017-10-02T17:19:05.996Z,27.60
2017-10-02T17:21:37.276Z,31.17
2017-10-02T17:24:08.258Z,40.67
2017-10-02T17:26:38.863Z,31.27
2017-10-02T17:29:10.700Z,40.40
2017-10-02T17:31:42.668Z,29.70
2017-10-02T17:34:14.390Z,28.43
2017-10-02T17:36:45.857Z,27.57
2017-10-02T17:39:17.338Z,34.20
2017-10-02T17:41:48.592Z,26.53
2017-10-02T17:44:20.521Z,35.60
2017-10-02T17:46:51.417Z,39.07
2017-10-02T17:49:22.446Z,26.00
2017-10-02T17:51:53.270Z,37.33
2017-10-02T17:54:23.839Z,39.13
2017-10-02T17:56:54.865Z,36.80
2017-10-02T17:59:25.681Z,31.83
2017-10-02T18:01:56.842Z,36.70
2017-10-02T18:04:28.182Z,38.00
2017-10-02T18:06:59.244Z,34.53
2017-10-02T18:09:29.921Z,43.53
2017-10-02T18:12:00.916Z,39.10
2017-10-02T18:14:31.774Z,38.40
2017-10-02T18:17:02.794Z,37.40
2017-10-02T18:19:33.626Z,25.57
2017-10-02T18:22:05.023Z,29.80
2017-10-02T18:24:35.822Z,32.13
2017-10-02T18:27:06.736Z,37.83
2017-10-02T18:29:37.841Z,28.63
2017-10-02T18:32:09.140Z,39.60
2017-10-02T18:34:40.428Z,27.83
2017-10-02T18:37:11.205Z,35.13
2017-10-02T18:39:42.011Z,26.10
2017-10-02T18:42:12.922Z,34.40
2017-10-02T18:44:44.282Z,32.70
2017-10-02T18:47:15.781Z,28.73
2017-10-02T18:49:46.766Z,43.97
2017-10-02T18:52:17.381Z,29.40
2017-10-02T18:54:48.188Z,37.13
2017-10-02T18:57:19.606Z,31.37
2017-10-02T18:59:51.087Z,41.53
2017-10-02T19:02:22.550Z,34.58
2017-10-02T19:04:53.438Z,24.63
2017-10-02T19:07:24.644Z,38.70
2017-10-02T19:09:56.509Z,36.88
2017-10-02T19:12:28.108Z,41.58
2017-10-02T19:14:58.929Z,31.55
2017-10-02T19:17:30.020Z,38.22
2017-10-02T19:20:01.061Z,32.70
2017-10-02T19:22:31.999Z,37.13
2017-10-02T19:25:03.518Z,32.37
2017-10-02T19:27:34.822Z,41.80
2017-10-02T19:30:06.139Z,37.50
2017-10-02T19:32:37.148Z,33.95
2017-10-02T19:35:08.214Z,39.22
2017-10-02T19:37:40.132Z,46.53
2017-10-02T19:40:12.326Z,32.85
2017-10-02T19:42:44.226Z,32.00
2017-10-02T19:45:15.547Z,34.35
2017-10-02T19:47:47.466Z,26.67
2017-10-02T19:50:18.341Z,28.58
2017-10-02T19:52:49.965Z,36.22
2017-10-02T19:55:22.227Z,38.13
2017-10-02T19:57:54.097Z,34.92
2017-10-02T20:00:25.005Z,42.38
2017-10-02T20:02:56.743Z,44.75
2017-10-02T20:05:27.530Z,35.85
2017-10-02T20:07:58.556Z,35.38
2017-10-02T20:10:29.945Z,39.30
2017-10-02T20:13:01.120Z,43.70
2017-10-02T20:15:32.150Z,40.88
2017-10-02T20:18:02.949Z,41.40
2017-10-02T20:20:33.649Z,41.22
2017-10-02T20:23:04.679Z,43.15
2017-10-02T20:25:35.870Z,40.58
2017-10-02T20:28:07.041Z,50.63
2017-10-02T20:30:38.590Z,35.65
2017-10-02T20:33:09.525Z,31.23
2017-10-02T20:35:41.543Z,38.05
2017-10-02T20:38:12.491Z,44.97
2017-10-02T20:40:43.558Z,43.10
2017-10-02T20:43:14.406Z,53.05
2017-10-02T20:45:45.614Z,48.50
2017-10-02T20:48:16.660Z,41.83
2017-10-02T20:50:47.737Z,46.75
2017-10-02T20:53:18.106Z,42.88
2017-10-02T20:55:49.594Z,67.32
2017-10-02T20:58:20.182Z,53.38
2017-10-02T21:00:51.006Z,53.92
2017-10-02T21:03:21.443Z,79.10
2017-10-02T21:05:52.408Z,56.22
2017-10-02T21:08:22.836Z,56.67
2017-10-02T21:10:53.368Z,45.65
2017-10-02T21:13:23.856Z,44.10
2017-10-02T21:15:54.154Z,53.87
2017-10-02T21:18:24.617Z,50.20
2017-10-02T21:20:55.962Z,48.08
2017-10-02T21:23:27.166Z,56.63
2017-10-02T21:25:58.175Z,44.28
2017-10-02T21:28:28.172Z,60.33
2017-10-02T21:30:59.898Z,57.40
2017-10-02T21:33:31.370Z,51.85
2017-10-02T21:36:01.803Z,50.67
2017-10-02T21:38:33.328Z,54.83
2017-10-02T21:41:03.879Z,40.90
2017-10-02T21:43:34.835Z,62.58
2017-10-02T21:46:05.569Z,46.53
2017-10-02T21:48:36.176Z,39.03
2017-10-02T21:51:06.719Z,61.03
2017-10-02T21:53:38.117Z,48.50
2017-10-02T21:56:09.515Z,73.70
2017-10-02T21:58:40.229Z,58.95
2017-10-02T22:01:11.416Z,48.75
2017-10-02T22:03:42.632Z,48.60
2017-10-02T22:06:14.040Z,50.80
2017-10-02T22:08:44.658Z,51.25
2017-10-02T22:11:15.583Z,60.08
2017-10-02T22:13:46.388Z,55.65
2017-10-02T22:16:17.808Z,46.08
2017-10-02T22:18:50.230Z,51.50
2017-10-02T22:21:20.601Z,58.40
2017-10-02T22:23:50.736Z,44.90
2017-10-02T22:26:21.514Z,56.05
2017-10-02T22:28:53.282Z,45.25
2017-10-02T22:31:23.663Z,48.17
2017-10-02T22:33:54.321Z,47.65
2017-10-02T22:36:24.823Z,49.47
2017-10-02T22:38:55.478Z,58.45
2017-10-02T22:41:26.817Z,48.30
2017-10-02T22:43:58.182Z,57.28
2017-10-02T22:46:28.572Z,60.38
2017-10-02T22:48:59.144Z,53.92
2017-10-02T22:51:30.533Z,38.67
2017-10-02T22:54:01.001Z,43.03
2017-10-02T22:56:32.193Z,54.33
2017-10-02T22:59:03.266Z,56.75
2017-10-02T23:01:34.314Z,60.63
2017-10-02T23:04:05.337Z,52.10
2017-10-02T23:06:36.812Z,47.00
2017-10-02T23:09:07.119Z,63.35
2017-10-02T23:11:37.087Z,49.38
2017-10-02T23:14:08.106Z,42.38
2017-10-02T23:16:39.473Z,60.30
2017-10-02T23:19:10.230Z,53.22
2017-10-02T23:21:40.649Z,51.17
2017-10-02T23:24:10.856Z,53.25
2017-10-02T23:26:41.137Z,48.67
2017-10-02T23:29:12.364Z,45.42
2017-10-02T23:31:42.625Z,62.65
2017-10-02T23:34:12.953Z,59.45
2017-10-02T23:36:44.098Z,60.40
2017-10-02T23:39:14.574Z,44.90
2017-10-02T23:41:44.954Z,44.60
2017-10-02T23:44:15.066Z,44.30
2017-10-02T23:46:45.516Z,45.53
2017-10-02T23:49:16.097Z,47.08
2017-10-02T23:51:47.759Z,47.55
2017-10-02T23:54:18.789Z,48.55
2017-10-02T23:56:49.341Z,40.58
2017-10-02T23:59:20.554Z,47.67
